Sweet Lake, Louisiana
Current Conditions -  °F | °C
As of 6:53 AM on Thursday 30 Oct 2014 (Local Time) from KLCH Reporting Station
Clear Clear  
Wind Chill: 52°   Ceiling: Unl
Heat Index: 52°   Visibility: 10mi
Dew Point: 47°   Wind: 7mph
Humidity: 83%   Direction: 60°ENE
Pressure: 30.11"   Gusts: NA
Location:  30.1766°N, 93.2305°W
Report Text: KLCH 301153Z 06006KT 10SM CLR 11/08 A3011 RMK AO2 SLP203 T01110083 10156 20111 53006
Loading
Personal Weather Stations






























Interactive Weather Map
Tropical Storm Tracking
New forecast layout! Learn more

10-Day Weather Forecast

Advertisements
Track Severe Weather on mobile